createdAt,value
2022-10-09T00:00:50.012Z,96.49
2022-10-09T00:03:17.703Z,97.06
2022-10-09T00:05:45.554Z,99.74
2022-10-09T00:08:12.104Z,98.87
2022-10-09T00:10:42.977Z,97.06
2022-10-09T00:13:10.325Z,96.02
2022-10-09T00:15:41.917Z,95.54
2022-10-09T00:18:10.667Z,93.75
2022-10-09T00:20:42.377Z,92.53
2022-10-09T00:23:10.300Z,93.73
2022-10-09T00:25:38.117Z,95.63
2022-10-09T00:28:05.281Z,94.65
2022-10-09T00:30:32.090Z,93.16
2022-10-09T00:32:58.732Z,94.80
2022-10-09T00:35:25.371Z,95.53
2022-10-09T00:37:52.007Z,92.51
2022-10-09T00:40:18.593Z,93.03
2022-10-09T00:42:45.757Z,91.78
2022-10-09T00:45:21.428Z,93.12
2022-10-09T00:47:50.692Z,94.05
2022-10-09T00:50:24.026Z,93.53
2022-10-09T00:53:01.289Z,96.84
2022-10-09T00:55:28.967Z,97.68
2022-10-09T00:57:57.441Z,97.16
2022-10-09T01:00:24.103Z,96.54
2022-10-09T01:02:52.461Z,98.07
2022-10-09T01:05:22.441Z,97.61
2022-10-09T01:08:10.521Z,96.40
2022-10-09T01:10:53.683Z,95.65
2022-10-09T01:13:42.751Z,97.54
2022-10-09T01:16:33.379Z,97.66
2022-10-09T01:19:21.831Z,98.09
2022-10-09T01:22:43.577Z,97.12
2022-10-09T01:25:23.779Z,100.00
2022-10-09T01:27:50.528Z,100.00
2022-10-09T01:30:17.203Z,96.47
2022-10-09T01:32:50.271Z,98.66
2022-10-09T01:35:18.080Z,100.00
2022-10-09T01:37:47.388Z,100.00
2022-10-09T01:40:17.027Z,98.54
2022-10-09T01:42:44.032Z,98.30
2022-10-09T01:45:11.003Z,100.00
2022-10-09T01:47:38.092Z,98.25
2022-10-09T01:50:14.111Z,99.34
2022-10-09T01:52:59.189Z,98.22
2022-10-09T01:55:37.647Z,96.49
2022-10-09T01:58:27.029Z,100.00
2022-10-09T02:00:59.588Z,100.00
2022-10-09T02:03:28.430Z,100.00
2022-10-09T02:05:56.867Z,98.65
2022-10-09T02:08:24.901Z,98.44
2022-10-09T02:10:56.800Z,97.97
2022-10-09T02:13:23.921Z,99.41
2022-10-09T02:16:01.171Z,98.50
2022-10-09T02:19:00.044Z,99.08
2022-10-09T02:21:42.153Z,99.49
2022-10-09T02:24:16.960Z,99.50
2022-10-09T02:26:43.737Z,100.00
2022-10-09T02:29:11.613Z,100.00
2022-10-09T02:31:41.248Z,100.00
2022-10-09T02:34:14.149Z,100.00
2022-10-09T02:36:41.322Z,100.00
2022-10-09T02:39:09.138Z,97.95
2022-10-09T02:41:35.795Z,100.00
2022-10-09T02:44:03.199Z,100.00
2022-10-09T02:46:30.856Z,100.00
2022-10-09T02:48:57.741Z,100.00
2022-10-09T02:51:24.861Z,100.00
2022-10-09T02:53:54.991Z,98.08
2022-10-09T02:56:22.440Z,97.04
2022-10-09T02:58:49.594Z,100.00
2022-10-09T03:01:16.482Z,98.45
2022-10-09T03:03:43.759Z,97.97
2022-10-09T03:06:15.788Z,100.00
2022-10-09T03:08:47.864Z,100.00
2022-10-09T03:11:16.465Z,99.16
2022-10-09T03:13:43.482Z,98.41
2022-10-09T03:16:13.091Z,99.68
2022-10-09T03:18:40.564Z,97.02
2022-10-09T03:21:09.031Z,99.76
2022-10-09T03:23:36.287Z,98.59
2022-10-09T03:26:08.407Z,99.18
2022-10-09T03:28:36.938Z,100.00
2022-10-09T03:31:03.955Z,97.87
2022-10-09T03:33:30.790Z,100.00
2022-10-09T03:35:57.445Z,100.00
2022-10-09T03:38:24.008Z,98.81
2022-10-09T03:40:50.609Z,98.11
2022-10-09T03:43:17.239Z,100.00
2022-10-09T03:45:43.967Z,100.00
2022-10-09T03:48:12.202Z,100.00
2022-10-09T03:50:40.232Z,100.00
2022-10-09T03:53:08.484Z,100.00
2022-10-09T03:55:35.305Z,100.00
2022-10-09T03:58:01.911Z,100.00
2022-10-09T04:00:28.756Z,100.00
2022-10-09T04:02:55.539Z,100.00
2022-10-09T04:05:22.273Z,100.00
2022-10-09T04:07:48.816Z,100.00
2022-10-09T04:10:15.881Z,100.00
2022-10-09T04:12:42.667Z,100.00
2022-10-09T04:15:09.874Z,100.00
2022-10-09T04:17:36.969Z,100.00
2022-10-09T04:20:03.858Z,100.00
2022-10-09T04:22:30.504Z,98.72
2022-10-09T04:24:57.084Z,100.00
2022-10-09T04:27:23.637Z,100.00
2022-10-09T04:29:50.262Z,100.00
2022-10-09T04:32:16.863Z,100.00
2022-10-09T04:34:43.542Z,100.00
2022-10-09T04:37:10.001Z,100.00
2022-10-09T04:39:36.537Z,100.00
2022-10-09T04:42:03.160Z,100.00
2022-10-09T04:44:29.757Z,100.00
2022-10-09T04:46:56.391Z,100.00
2022-10-09T04:49:22.885Z,100.00
2022-10-09T04:51:49.416Z,100.00
2022-10-09T04:54:16.308Z,100.00
2022-10-09T04:56:42.876Z,100.00
2022-10-09T04:59:09.415Z,100.00
2022-10-09T05:01:38.446Z,100.00
2022-10-09T05:04:05.478Z,100.00
2022-10-09T05:06:32.118Z,100.00
2022-10-09T05:08:58.618Z,100.00
2022-10-09T05:11:26.376Z,100.00
2022-10-09T05:13:55.819Z,100.00
2022-10-09T05:16:27.852Z,100.00
2022-10-09T05:18:57.374Z,100.00
2022-10-09T05:21:25.066Z,100.00
2022-10-09T05:23:54.151Z,99.59
2022-10-09T05:26:23.027Z,99.86
2022-10-09T05:28:50.445Z,100.00
2022-10-09T05:31:26.155Z,100.00
2022-10-09T05:33:54.243Z,100.00
2022-10-09T05:36:21.352Z,100.00
2022-10-09T05:38:48.141Z,100.00
2022-10-09T05:41:16.611Z,100.00
2022-10-09T05:43:44.862Z,100.00
2022-10-09T05:46:17.742Z,100.00
2022-10-09T05:48:51.036Z,100.00
2022-10-09T05:51:20.003Z,100.00
2022-10-09T05:53:47.947Z,100.00
2022-10-09T05:56:20.259Z,100.00
2022-10-09T05:58:52.763Z,100.00
2022-10-09T06:01:20.412Z,100.00
2022-10-09T06:03:52.089Z,100.00
2022-10-09T06:06:20.426Z,100.00
2022-10-09T06:08:47.652Z,100.00
2022-10-09T06:11:22.962Z,100.00
2022-10-09T06:13:50.141Z,100.00
2022-10-09T06:16:18.014Z,100.00
2022-10-09T06:18:49.561Z,100.00
2022-10-09T06:21:17.342Z,100.00
2022-10-09T06:23:44.620Z,100.00
2022-10-09T06:26:13.402Z,100.00
2022-10-09T06:28:40.834Z,100.00
2022-10-09T06:31:13.629Z,100.00
2022-10-09T06:33:42.225Z,100.00
2022-10-09T06:36:14.961Z,100.00
2022-10-09T06:38:42.593Z,100.00
2022-10-09T06:41:11.925Z,100.00
2022-10-09T06:43:39.653Z,100.00
2022-10-09T06:46:09.262Z,100.00
2022-10-09T06:48:37.960Z,100.00
2022-10-09T06:51:19.254Z,100.00
2022-10-09T06:53:49.094Z,100.00
2022-10-09T06:56:16.713Z,100.00
2022-10-09T06:58:43.581Z,98.94
2022-10-09T07:01:32.616Z,97.34
2022-10-09T07:04:03.188Z,95.83
2022-10-09T07:06:34.513Z,95.92
2022-10-09T07:09:06.624Z,95.53
2022-10-09T07:11:36.587Z,96.77
2022-10-09T07:14:05.604Z,97.12
2022-10-09T07:16:34.964Z,97.72
2022-10-09T07:19:03.958Z,97.87
2022-10-09T07:21:30.551Z,98.67
2022-10-09T07:24:00.292Z,98.87
2022-10-09T07:26:28.657Z,98.48
2022-10-09T07:28:55.554Z,98.45
2022-10-09T07:31:23.200Z,97.90
2022-10-09T07:33:51.684Z,99.69
2022-10-09T07:36:19.126Z,98.76
2022-10-09T07:38:51.841Z,99.01
2022-10-09T07:41:19.121Z,98.58
2022-10-09T07:43:45.997Z,98.89
2022-10-09T07:46:15.817Z,98.07
2022-10-09T07:48:43.134Z,98.45
2022-10-09T07:51:15.262Z,98.23
2022-10-09T07:53:42.195Z,98.14
2022-10-09T07:56:16.937Z,98.36
2022-10-09T07:58:48.199Z,98.24
2022-10-09T08:01:19.634Z,98.46
2022-10-09T08:03:47.320Z,98.24
2022-10-09T08:06:14.069Z,98.39
2022-10-09T08:08:40.955Z,98.95
2022-10-09T08:11:13.257Z,97.55
2022-10-09T08:13:40.780Z,98.60
2022-10-09T08:16:07.584Z,98.84
2022-10-09T08:18:34.922Z,98.33
2022-10-09T08:21:08.330Z,98.09
2022-10-09T08:23:36.454Z,98.30
2022-10-09T08:26:04.154Z,100.00
2022-10-09T08:28:31.124Z,100.00
2022-10-09T08:30:57.744Z,98.25
2022-10-09T08:33:25.904Z,100.00
2022-10-09T08:35:53.451Z,99.53
2022-10-09T08:38:44.901Z,99.40
2022-10-09T08:41:15.710Z,100.00
2022-10-09T08:43:48.689Z,98.82
2022-10-09T08:46:26.289Z,100.00
2022-10-09T08:48:54.885Z,100.00
2022-10-09T08:51:28.146Z,99.54
2022-10-09T08:54:01.594Z,97.29
2022-10-09T08:56:30.333Z,100.00
2022-10-09T08:58:57.032Z,97.78
2022-10-09T09:01:53.051Z,98.70
2022-10-09T09:04:45.031Z,100.00
2022-10-09T09:07:25.847Z,100.00
2022-10-09T09:10:20.331Z,98.02
2022-10-09T09:13:08.174Z,100.00
2022-10-09T09:16:13.323Z,98.52
2022-10-09T09:18:58.750Z,95.10
2022-10-09T09:21:47.669Z,94.89
2022-10-09T09:24:19.131Z,98.49
2022-10-09T09:26:53.442Z,99.53
2022-10-09T09:29:25.373Z,96.02
2022-10-09T09:31:57.019Z,96.52
2022-10-09T09:34:41.357Z,94.26
2022-10-09T09:37:10.419Z,96.67
2022-10-09T09:40:34.467Z,94.73
2022-10-09T09:42:24.436Z,93.28
2022-10-09T09:44:59.967Z,94.06
2022-10-09T09:47:36.167Z,91.73
2022-10-09T09:50:05.487Z,91.29
2022-10-09T09:52:36.771Z,92.25
2022-10-09T09:55:03.951Z,92.00
2022-10-09T09:57:41.896Z,90.00
2022-10-09T10:00:23.446Z,89.91
2022-10-09T10:02:51.165Z,90.63
2022-10-09T10:05:26.437Z,89.45
2022-10-09T10:07:53.403Z,87.86
2022-10-09T10:10:25.617Z,88.38
2022-10-09T10:12:52.976Z,87.63
2022-10-09T10:15:22.628Z,86.45
2022-10-09T10:17:59.917Z,87.18
2022-10-09T10:20:28.870Z,86.14
2022-10-09T10:22:57.170Z,86.51
2022-10-09T10:25:30.253Z,84.56
2022-10-09T10:28:15.622Z,85.03
2022-10-09T10:30:43.765Z,85.60
2022-10-09T10:33:21.026Z,83.98
2022-10-09T10:35:51.602Z,83.74
2022-10-09T10:38:26.814Z,82.60
2022-10-09T10:41:22.366Z,79.62
2022-10-09T10:44:01.503Z,81.23
2022-10-09T10:46:49.574Z,78.30
2022-10-09T10:49:20.641Z,78.60
2022-10-09T10:52:05.968Z,77.50
2022-10-09T10:54:54.074Z,77.64
2022-10-09T10:57:26.800Z,75.95
2022-10-09T11:00:05.437Z,74.50
2022-10-09T11:03:18.597Z,74.12
2022-10-09T11:05:54.111Z,78.91
2022-10-09T11:08:48.572Z,75.53
2022-10-09T11:11:50.287Z,75.20
2022-10-09T11:14:47.377Z,77.60
2022-10-09T11:17:55.558Z,75.97
2022-10-09T11:20:37.802Z,71.79
2022-10-09T11:23:19.765Z,74.63
2022-10-09T11:26:12.542Z,70.47
2022-10-09T11:28:52.196Z,73.35
2022-10-09T11:31:28.958Z,73.18
2022-10-09T11:34:00.278Z,69.14
2022-10-09T11:36:40.172Z,70.77
2022-10-09T11:39:22.405Z,74.07
2022-10-09T11:41:51.733Z,69.39
2022-10-09T11:44:52.106Z,72.02
2022-10-09T11:47:54.893Z,72.43
2022-10-09T11:51:00.064Z,70.33
2022-10-09T11:53:30.214Z,72.96
2022-10-09T11:56:09.014Z,70.46
2022-10-09T11:58:35.954Z,73.80
2022-10-09T12:01:21.598Z,67.07
2022-10-09T12:04:00.883Z,69.42
2022-10-09T12:06:29.317Z,72.45
2022-10-09T12:08:58.009Z,71.07
2022-10-09T12:11:26.694Z,72.07
2022-10-09T12:13:56.711Z,70.90
2022-10-09T12:16:51.493Z,75.96
2022-10-09T12:19:20.503Z,70.16
2022-10-09T12:21:58.106Z,74.90
2022-10-09T12:24:29.044Z,69.62
2022-10-09T12:26:59.977Z,71.86
2022-10-09T12:30:00.240Z,70.01
2022-10-09T12:32:35.541Z,72.98
2022-10-09T12:35:21.383Z,74.15
2022-10-09T12:37:47.984Z,74.93
2022-10-09T12:40:17.910Z,70.34
2022-10-09T12:42:46.315Z,69.63
2022-10-09T12:45:19.354Z,68.32
2022-10-09T12:47:46.483Z,72.61
2022-10-09T12:50:19.625Z,72.08
2022-10-09T12:53:02.214Z,70.53
2022-10-09T12:55:41.602Z,73.99
2022-10-09T12:58:18.435Z,70.54
2022-10-09T13:00:48.464Z,69.79
2022-10-09T13:03:37.090Z,73.66
2022-10-09T13:06:13.672Z,74.40
2022-10-09T13:08:40.652Z,70.33
2022-10-09T13:11:16.470Z,72.38
2022-10-09T13:13:43.317Z,73.77
2022-10-09T13:16:10.765Z,73.43
2022-10-09T13:18:38.450Z,70.84
2022-10-09T13:21:31.495Z,68.04
2022-10-09T13:24:08.829Z,71.40
2022-10-09T13:26:35.515Z,73.82
2022-10-09T13:29:03.699Z,71.70
2022-10-09T13:31:30.338Z,66.32
2022-10-09T13:33:56.861Z,71.45
2022-10-09T13:36:23.459Z,71.40
2022-10-09T13:38:50.024Z,68.31
2022-10-09T13:41:22.010Z,69.97
2022-10-09T13:43:49.404Z,67.83
2022-10-09T13:46:16.546Z,66.66
2022-10-09T13:48:43.305Z,68.47
2022-10-09T13:51:11.041Z,72.03
2022-10-09T13:53:38.069Z,72.27
2022-10-09T13:56:05.462Z,69.99
2022-10-09T13:58:32.164Z,72.01
2022-10-09T14:00:58.851Z,64.15
2022-10-09T14:03:25.681Z,69.72
2022-10-09T14:05:58.721Z,71.79
2022-10-09T14:08:25.881Z,68.96
2022-10-09T14:10:52.545Z,71.82
2022-10-09T14:13:20.727Z,69.33
2022-10-09T14:15:47.973Z,70.03
2022-10-09T14:18:15.000Z,68.56
2022-10-09T14:20:41.538Z,71.40
2022-10-09T14:23:09.303Z,72.60
2022-10-09T14:25:36.036Z,69.59
2022-10-09T14:28:03.230Z,71.67
2022-10-09T14:30:29.840Z,68.65
2022-10-09T14:32:57.812Z,70.52
2022-10-09T14:35:24.562Z,71.81
2022-10-09T14:37:51.088Z,70.11
2022-10-09T14:40:17.882Z,71.23
2022-10-09T14:42:44.426Z,68.75
2022-10-09T14:45:11.146Z,73.13
2022-10-09T14:47:37.828Z,69.44
2022-10-09T14:50:05.336Z,71.46
2022-10-09T14:52:31.986Z,72.71
2022-10-09T14:54:58.760Z,67.85
2022-10-09T14:57:25.517Z,70.31
2022-10-09T14:59:52.990Z,69.44
2022-10-09T15:02:20.374Z,71.89
2022-10-09T15:04:46.927Z,71.42
2022-10-09T15:07:13.555Z,71.96
2022-10-09T15:09:40.105Z,71.94
2022-10-09T15:12:06.715Z,73.10
2022-10-09T15:14:33.418Z,73.41
2022-10-09T15:16:59.970Z,72.84
2022-10-09T15:19:26.594Z,73.04
2022-10-09T15:21:53.849Z,69.86
2022-10-09T15:24:20.412Z,69.91
2022-10-09T15:26:47.048Z,73.15
2022-10-09T15:29:13.684Z,73.46
2022-10-09T15:31:41.632Z,74.59
2022-10-09T15:34:10.119Z,74.52
2022-10-09T15:36:40.036Z,74.19
2022-10-09T15:39:08.838Z,75.03
2022-10-09T15:41:37.958Z,74.98
2022-10-09T15:44:09.183Z,75.15
2022-10-09T15:46:35.735Z,75.32
2022-10-09T15:49:04.361Z,75.20
2022-10-09T15:51:33.179Z,74.98
2022-10-09T15:54:01.244Z,75.33
2022-10-09T15:56:29.199Z,75.00
2022-10-09T15:58:57.006Z,76.50
2022-10-09T16:01:24.210Z,75.90
2022-10-09T16:03:51.803Z,74.92
2022-10-09T16:06:21.281Z,75.00
2022-10-09T16:08:48.100Z,73.27
2022-10-09T16:11:20.203Z,75.29
2022-10-09T16:13:49.958Z,75.44
2022-10-09T16:16:20.566Z,75.35
2022-10-09T16:18:48.102Z,75.84
2022-10-09T16:21:21.245Z,76.40
2022-10-09T16:23:48.953Z,76.09
2022-10-09T16:26:19.041Z,76.02
2022-10-09T16:28:47.626Z,76.99
2022-10-09T16:31:28.734Z,77.14
2022-10-09T16:33:56.703Z,77.58
2022-10-09T16:36:23.459Z,77.65
2022-10-09T16:38:50.125Z,77.71
2022-10-09T16:41:18.834Z,77.85
2022-10-09T16:43:47.572Z,78.37
2022-10-09T16:46:20.523Z,78.53
2022-10-09T16:48:48.410Z,78.16
2022-10-09T16:51:18.025Z,78.35
2022-10-09T16:53:48.240Z,78.69
2022-10-09T16:56:16.796Z,78.66
2022-10-09T16:58:43.922Z,78.84
2022-10-09T17:01:11.716Z,78.64
2022-10-09T17:03:42.783Z,79.30
2022-10-09T17:06:12.087Z,79.17
2022-10-09T17:08:39.134Z,79.47
2022-10-09T17:11:10.376Z,79.55
2022-10-09T17:13:37.409Z,79.50
2022-10-09T17:16:17.260Z,79.63
2022-10-09T17:18:45.551Z,79.73
2022-10-09T17:21:13.521Z,80.15
2022-10-09T17:23:40.629Z,80.14
2022-10-09T17:26:07.225Z,80.06
2022-10-09T17:28:34.649Z,80.40
2022-10-09T17:31:06.224Z,80.32
2022-10-09T17:33:34.158Z,80.58
2022-10-09T17:36:02.572Z,80.93
2022-10-09T17:38:29.174Z,80.65
2022-10-09T17:40:55.867Z,81.12
2022-10-09T17:43:22.818Z,81.01
2022-10-09T17:45:49.897Z,81.09
2022-10-09T17:48:18.010Z,81.35
2022-10-09T17:50:56.125Z,81.40
2022-10-09T17:53:23.713Z,81.31
2022-10-09T17:55:52.110Z,81.93
2022-10-09T17:58:20.185Z,81.83
2022-10-09T18:00:47.750Z,81.97
2022-10-09T18:03:15.238Z,82.07
2022-10-09T18:05:47.199Z,82.28
2022-10-09T18:08:16.349Z,82.21
2022-10-09T18:10:43.006Z,82.52
2022-10-09T18:13:10.953Z,82.62
2022-10-09T18:15:41.998Z,83.08
2022-10-09T18:18:09.943Z,82.67
2022-10-09T18:20:38.339Z,82.46
2022-10-09T18:23:05.760Z,83.10
2022-10-09T18:25:32.969Z,82.67
2022-10-09T18:27:59.896Z,83.26
2022-10-09T18:30:27.719Z,83.10
2022-10-09T18:32:54.465Z,83.06
2022-10-09T18:35:21.103Z,83.28
2022-10-09T18:37:47.800Z,83.34
2022-10-09T18:40:14.470Z,83.62
2022-10-09T18:42:41.106Z,83.76
2022-10-09T18:45:10.024Z,83.91
2022-10-09T18:47:36.663Z,83.80
2022-10-09T18:50:07.950Z,83.96
2022-10-09T18:52:35.627Z,84.13
2022-10-09T18:55:03.033Z,84.24
2022-10-09T18:57:30.105Z,84.25
2022-10-09T18:59:58.448Z,84.19
2022-10-09T19:02:27.034Z,84.14
2022-10-09T19:04:54.907Z,84.52
2022-10-09T19:07:21.546Z,84.24
2022-10-09T19:09:56.281Z,84.97
2022-10-09T19:12:25.403Z,84.92
2022-10-09T19:14:52.853Z,85.07
2022-10-09T19:17:19.788Z,85.28
2022-10-09T19:19:46.322Z,84.47
2022-10-09T19:22:16.563Z,85.04
2022-10-09T19:24:44.829Z,84.47
2022-10-09T19:27:11.702Z,85.52
2022-10-09T19:29:38.588Z,85.13
2022-10-09T19:32:05.119Z,85.12
2022-10-09T19:34:33.777Z,85.43
2022-10-09T19:37:00.485Z,85.36
2022-10-09T19:39:27.944Z,85.35
2022-10-09T19:41:54.712Z,85.71
2022-10-09T19:44:21.591Z,85.60
2022-10-09T19:46:48.503Z,85.48
2022-10-09T19:49:16.613Z,85.25
2022-10-09T19:51:43.668Z,85.38
2022-10-09T19:54:10.232Z,85.64
2022-10-09T19:56:37.545Z,85.40
2022-10-09T19:59:07.365Z,86.03
2022-10-09T20:01:35.894Z,86.38
2022-10-09T20:04:05.174Z,85.99
2022-10-09T20:06:31.856Z,86.12
2022-10-09T20:08:58.627Z,86.33
2022-10-09T20:11:26.675Z,86.16
2022-10-09T20:13:56.130Z,85.60
2022-10-09T20:16:24.225Z,85.57
2022-10-09T20:18:50.820Z,85.71
2022-10-09T20:21:18.299Z,86.27
2022-10-09T20:23:44.863Z,86.10
2022-10-09T20:26:16.769Z,86.41
2022-10-09T20:28:44.154Z,86.21
2022-10-09T20:31:14.824Z,86.49
2022-10-09T20:33:42.792Z,86.74
2022-10-09T20:36:22.880Z,86.67
2022-10-09T20:38:49.728Z,87.01
2022-10-09T20:41:17.293Z,86.83
2022-10-09T20:43:43.839Z,87.19
2022-10-09T20:46:13.495Z,86.54
2022-10-09T20:48:42.617Z,86.66
2022-10-09T20:51:09.838Z,87.11
2022-10-09T20:53:36.786Z,87.61
2022-10-09T20:56:09.195Z,87.70
2022-10-09T20:58:36.509Z,87.39
2022-10-09T21:01:07.745Z,87.04
2022-10-09T21:03:36.147Z,87.52
2022-10-09T21:06:08.035Z,86.88
2022-10-09T21:08:35.944Z,87.12
2022-10-09T21:11:06.087Z,87.27
2022-10-09T21:13:33.173Z,86.74
2022-10-09T21:15:59.979Z,86.49
2022-10-09T21:18:26.590Z,86.96
2022-10-09T21:20:53.147Z,87.36
2022-10-09T21:23:19.763Z,86.96
2022-10-09T21:25:48.361Z,87.43
2022-10-09T21:28:15.264Z,88.14
2022-10-09T21:30:42.009Z,87.92
2022-10-09T21:33:09.402Z,87.56
2022-10-09T21:35:44.637Z,88.15
2022-10-09T21:38:17.815Z,88.48
2022-10-09T21:40:45.502Z,87.97
2022-10-09T21:43:12.431Z,88.64
2022-10-09T21:45:40.260Z,88.12
2022-10-09T21:48:08.164Z,87.44
2022-10-09T21:50:36.450Z,88.07
2022-10-09T21:53:04.169Z,87.73
2022-10-09T21:55:30.910Z,88.13
2022-10-09T21:57:57.545Z,87.63
2022-10-09T22:00:24.166Z,87.41
2022-10-09T22:02:50.934Z,88.44
2022-10-09T22:05:18.693Z,87.22
2022-10-09T22:07:45.291Z,88.25
2022-10-09T22:10:11.867Z,87.86
2022-10-09T22:12:38.551Z,87.55
2022-10-09T22:15:05.846Z,87.58
2022-10-09T22:17:32.405Z,88.16
2022-10-09T22:20:00.120Z,87.44
2022-10-09T22:22:26.951Z,87.80
2022-10-09T22:24:53.636Z,88.08
2022-10-09T22:27:20.182Z,87.43
2022-10-09T22:29:46.851Z,87.25
2022-10-09T22:32:13.546Z,87.45
2022-10-09T22:34:40.165Z,88.06
2022-10-09T22:37:06.729Z,88.13
2022-10-09T22:39:33.690Z,88.22
2022-10-09T22:42:00.250Z,87.45
2022-10-09T22:44:26.960Z,87.74
2022-10-09T22:46:53.521Z,87.84
2022-10-09T22:49:20.181Z,88.13
2022-10-09T22:51:46.737Z,87.64
2022-10-09T22:54:13.609Z,87.58
2022-10-09T22:56:42.732Z,87.69
2022-10-09T22:59:10.469Z,88.19
2022-10-09T23:01:41.332Z,87.84
2022-10-09T23:04:12.120Z,88.24
2022-10-09T23:06:39.429Z,88.30
2022-10-09T23:09:07.865Z,88.33
2022-10-09T23:11:34.816Z,88.41
2022-10-09T23:14:03.101Z,88.17
2022-10-09T23:16:30.963Z,88.21
2022-10-09T23:19:04.130Z,88.23
2022-10-09T23:21:32.959Z,89.09
2022-10-09T23:23:59.526Z,89.03
2022-10-09T23:26:29.132Z,89.35
2022-10-09T23:29:05.161Z,89.82
2022-10-09T23:31:32.725Z,89.58
2022-10-09T23:33:59.796Z,90.24
2022-10-09T23:36:28.435Z,88.86
2022-10-09T23:38:57.615Z,88.60
2022-10-09T23:41:27.011Z,88.41
2022-10-09T23:43:54.206Z,89.77
2022-10-09T23:46:23.515Z,90.73
2022-10-09T23:48:50.994Z,88.78
2022-10-09T23:51:19.896Z,89.74
2022-10-09T23:53:46.899Z,90.42
2022-10-09T23:56:18.222Z,89.58
2022-10-09T23:58:45.354Z,88.44
